CheckWX is a tool to help pilots better visualize weather data.  It is not intended as a substitute for an official pre-flight weather briefing.

19:44:50 UTC

KISW METAR
Alexander Field South Wood County Airport
Wisconsin Rapids, Wisconsin, USA
Current

13 mins ago

KISW 211932Z AUTO 18009G19KT 10SM BKN014 OVC020 24/21 A2990 RMK AO2 T02440206
Observed
Sep-21 @ 19:32 UTC
Wind
  • 180° at 9 KTS
  • Gusting to 19 KTS
Visibility
10 SM
Flight Rules
MVFR
Cloud Levels
  • Broken at 1,400' AGL
  • Overcast at 2,000' AGL
Temperature
24°C / 75°F
Dewpoint
21°C / 70°F
Humidity
83%
Altimeter
29.9" Hg
Pressure
1012.52 hPa
Previous

31 mins ago

KISW 211914Z AUTO 20012G20KT 10SM BKN014 OVC019 23/21 A2991 RMK AO2 T02330206
Observed
Sep-21 @ 19:14 UTC
Wind
  • 200° at 12 KTS
  • Gusting to 20 KTS
Visibility
10 SM
Flight Rules
MVFR
Cloud Levels
  • Broken at 1,400' AGL
  • Overcast at 1,900' AGL
Temperature
23°C / 73°F
Dewpoint
21°C / 70°F
Humidity
89%
Altimeter
29.91" Hg
Pressure
1012.92 hPa
Previous

51 mins ago

KISW 211854Z AUTO 19008KT 10SM OVC015 23/21 A2991 RMK AO2 SLP124 T02330206
Observed
Sep-21 @ 18:54 UTC
Wind
  • 190° at 8 KTS
Visibility
10 SM
Flight Rules
MVFR
Cloud Levels
  • Overcast at 1,500' AGL
Temperature
23°C / 73°F
Dewpoint
21°C / 70°F
Humidity
89%
Altimeter
29.91" Hg
Pressure
1012.92 hPa